Time;durP1;ratioP1;P1;durP2;ratioP2;P2;SDS_P1;SDS_P2;PMS_P1;PMS_P2;Temp;Humidity;BMP_temperature;BMP_pressure;BME280_temperature;BME280_humidity;BME280_pressure;Samples;Min_cycle;Max_cycle;Signal;HPM_P1;HPM_P2
2022/09/30 00:01:25;;;;;;;6.32;4.63;;;9.60;99.90;;;;;;4991007;28;20121;-77
2022/09/30 00:03:56;;;;;;;8.38;4.15;;;9.60;99.90;;;;;;4982339;28;20129;-77
2022/09/30 00:06:22;;;;;;;6.88;4.38;;;9.60;99.90;;;;;;5000994;28;20089;-76
2022/09/30 00:08:52;;;;;;;8.25;4.45;;;9.60;99.90;;;;;;4983182;28;20050;-76
2022/09/30 00:11:20;;;;;;;8.02;4.55;;;9.60;99.90;;;;;;4991141;28;20031;-76
2022/09/30 00:13:48;;;;;;;9.98;4.38;;;9.60;99.90;;;;;;4993656;28;20022;-76
2022/09/30 00:16:15;;;;;;;6.75;4.80;;;9.50;99.90;;;;;;4986830;28;20121;-76
2022/09/30 00:18:41;;;;;;;7.97;4.43;;;9.50;99.90;;;;;;4981426;28;20415;-76
2022/09/30 00:21:07;;;;;;;5.55;4.10;;;9.50;99.90;;;;;;4991850;28;20023;-75
2022/09/30 00:23:45;;;;;;;7.13;5.05;;;9.50;99.90;;;;;;4988603;28;20058;-75
2022/09/30 00:26:14;;;;;;;6.10;4.30;;;9.40;99.90;;;;;;4986922;28;20034;-74
2022/09/30 00:28:42;;;;;;;6.03;3.85;;;9.40;99.90;;;;;;4984728;28;20084;-75
2022/09/30 00:31:12;;;;;;;4.90;3.67;;;9.40;99.90;;;;;;4987993;28;20018;-75
2022/09/30 00:33:42;;;;;;;5.75;3.85;;;9.40;99.90;;;;;;4989857;28;20073;-75
2022/09/30 00:36:08;;;;;;;6.95;3.55;;;9.40;99.90;;;;;;4981654;28;20038;-74
2022/09/30 00:38:34;;;;;;;6.78;3.60;;;9.40;99.90;;;;;;4991190;28;20045;-76
2022/09/30 00:41:00;;;;;;;5.22;3.28;;;9.40;99.90;;;;;;4994272;28;20395;-76
2022/09/30 00:43:54;;;;;;;5.38;3.30;;;9.40;99.90;;;;;;5009865;28;20034;-76
2022/09/30 00:46:40;;;;;;;5.80;3.50;;;9.40;99.90;;;;;;4991020;28;20443;-75
2022/09/30 00:49:17;;;;;;;4.68;2.85;;;9.40;99.90;;;;;;4990522;28;20030;-76
2022/09/30 00:51:53;;;;;;;4.72;2.80;;;9.40;99.90;;;;;;4986919;28;20027;-75
2022/09/30 00:54:30;;;;;;;6.40;3.28;;;9.50;99.90;;;;;;5020781;22;20519;-72
2022/09/30 00:57:01;;;;;;;5.65;3.13;;;9.40;99.90;;;;;;4985565;28;20038;-72
2022/09/30 00:59:40;;;;;;;5.32;3.53;;;9.40;99.90;;;;;;4986628;28;20092;-72
2022/09/30 01:02:13;;;;;;;7.32;3.47;;;9.50;99.90;;;;;;4988083;28;20035;-72
2022/09/30 01:04:41;;;;;;;6.20;3.53;;;9.50;99.90;;;;;;4985190;28;20491;-72
2022/09/30 01:07:08;;;;;;;5.20;3.22;;;9.50;99.90;;;;;;4967492;28;20122;-72
2022/09/30 01:09:40;;;;;;;5.53;3.47;;;9.40;99.90;;;;;;4973503;28;20030;-72
2022/09/30 01:12:19;;;;;;;4.47;2.88;;;9.40;99.90;;;;;;4975739;28;20480;-72
2022/09/30 01:14:46;;;;;;;5.63;2.53;;;9.40;99.90;;;;;;4960899;28;20280;-72
2022/09/30 01:17:36;;;;;;;4.70;2.60;;;9.40;99.90;;;;;;4972642;28;20066;-72
2022/09/30 01:20:34;;;;;;;4.20;2.88;;;9.40;99.90;;;;;;4975602;28;20027;-71
2022/09/30 01:23:30;;;;;;;5.60;3.28;;;9.40;99.90;;;;;;4961048;28;20019;-72
2022/09/30 01:26:25;;;;;;;4.70;3.17;;;9.40;99.90;;;;;;4969616;28;20042;-72
2022/09/30 01:29:03;;;;;;;3.50;2.55;;;9.40;99.90;;;;;;4975831;28;20097;-72
2022/09/30 01:31:35;;;;;;;4.53;3.00;;;9.40;99.90;;;;;;4965103;28;20019;-72
2022/09/30 01:34:19;;;;;;;5.38;3.05;;;9.30;99.90;;;;;;4970012;28;20031;-72
2022/09/30 01:37:02;;;;;;;3.80;2.70;;;9.30;99.90;;;;;;4975744;28;20043;-72
2022/09/30 01:39:54;;;;;;;6.25;3.00;;;9.30;99.90;;;;;;4974399;28;20029;-72
2022/09/30 01:42:50;;;;;;;5.68;3.13;;;9.30;99.90;;;;;;4973427;28;20050;-72
2022/09/30 01:45:34;;;;;;;4.57;2.83;;;9.30;99.90;;;;;;4975352;28;20046;-71
2022/09/30 01:48:10;;;;;;;4.83;3.00;;;9.20;99.90;;;;;;4970175;28;20392;-72
2022/09/30 01:51:06;;;;;;;7.22;3.40;;;9.20;99.90;;;;;;4967872;28;20046;-72
2022/09/30 01:53:49;;;;;;;4.30;2.72;;;9.20;99.90;;;;;;4965407;28;20055;-71
2022/09/30 01:56:40;;;;;;;5.27;3.40;;;9.20;99.90;;;;;;4966261;28;20045;-71
2022/09/30 01:59:45;;;;;;;5.78;3.35;;;9.20;99.90;;;;;;4969370;28;20023;-72
2022/09/30 02:02:30;;;;;;;7.55;3.25;;;9.20;99.90;;;;;;4896642;29;20028;-71
2022/09/30 02:05:10;;;;;;;5.57;3.42;;;9.20;99.90;;;;;;4967530;28;20353;-72
2022/09/30 02:08:24;;;;;;;4.88;3.10;;;9.20;99.90;;;;;;4970958;28;20031;-72
2022/09/30 02:11:05;;;;;;;4.97;3.05;;;9.20;99.90;;;;;;4969507;28;20022;-71
2022/09/30 02:13:34;;;;;;;6.72;2.83;;;9.20;99.90;;;;;;4970357;28;20106;-71
2022/09/30 02:16:12;;;;;;;7.68;3.55;;;9.20;99.90;;;;;;4981506;28;20027;-71
2022/09/30 02:18:42;;;;;;;4.97;3.17;;;9.20;99.90;;;;;;4968859;28;20101;-72
2022/09/30 02:21:10;;;;;;;8.38;3.50;;;9.20;99.90;;;;;;4974035;28;20026;-72
2022/09/30 02:23:42;;;;;;;7.15;3.55;;;9.20;99.90;;;;;;4964198;28;20038;-72
2022/09/30 02:26:28;;;;;;;5.25;3.38;;;9.20;99.90;;;;;;4962071;28;20027;-71
2022/09/30 02:29:07;;;;;;;6.65;3.55;;;9.20;99.90;;;;;;4974617;28;20037;-72
2022/09/30 02:31:40;;;;;;;5.05;3.50;;;9.20;99.90;;;;;;4983607;28;20066;-72
2022/09/30 02:34:28;;;;;;;7.93;4.00;;;9.20;99.90;;;;;;4974616;28;20019;-72
2022/09/30 02:37:26;;;;;;;5.63;3.40;;;9.20;99.90;;;;;;4974525;28;20054;-72
2022/09/30 02:40:15;;;;;;;6.18;3.67;;;9.20;99.90;;;;;;4974535;28;20059;-72
2022/09/30 02:42:44;;;;;;;6.63;3.90;;;9.20;99.90;;;;;;4980906;28;20021;-72
2022/09/30 02:45:15;;;;;;;7.15;3.78;;;9.20;99.90;;;;;;4989280;28;20033;-72
2022/09/30 02:48:18;;;;;;;5.82;3.47;;;9.20;99.90;;;;;;4954092;28;20114;-72
2022/09/30 02:51:02;;;;;;;7.95;4.30;;;9.20;99.90;;;;;;4955283;28;20023;-72
2022/09/30 02:53:55;;;;;;;5.50;3.42;;;9.20;99.90;;;;;;4963081;28;20023;-72
2022/09/30 02:56:42;;;;;;;5.22;3.42;;;9.20;99.90;;;;;;4974193;28;20503;-72
2022/09/30 02:59:10;;;;;;;6.47;3.40;;;9.20;99.90;;;;;;4959683;28;20027;-72
2022/09/30 03:01:40;;;;;;;7.70;4.18;;;9.20;99.90;;;;;;4973298;28;20031;-72
2022/09/30 03:04:17;;;;;;;5.40;3.47;;;9.20;99.90;;;;;;4972731;28;20035;-72
2022/09/30 03:06:46;;;;;;;6.18;3.72;;;9.20;99.90;;;;;;4964972;28;20572;-72
2022/09/30 03:09:15;;;;;;;6.85;4.03;;;9.20;99.90;;;;;;4973004;28;20081;-73
2022/09/30 03:11:46;;;;;;;7.13;3.80;;;9.20;99.90;;;;;;4973726;28;20085;-72
2022/09/30 03:15:03;;;;;;;6.30;3.78;;;9.20;99.90;;;;;;4973733;28;20097;-71
2022/09/30 03:17:58;;;;;;;6.57;3.80;;;9.20;99.90;;;;;;4963730;28;20488;-72
2022/09/30 03:20:36;;;;;;;7.95;3.78;;;9.20;99.90;;;;;;4963048;28;20035;-72
2022/09/30 03:23:36;;;;;;;5.90;4.20;;;9.20;99.90;;;;;;4959842;28;20469;-72
2022/09/30 03:26:20;;;;;;;6.38;4.40;;;9.20;99.90;;;;;;4968025;28;20081;-72
2022/09/30 03:29:14;;;;;;;9.35;4.80;;;9.20;99.90;;;;;;4972251;28;20015;-71
2022/09/30 03:32:10;;;;;;;8.13;4.38;;;9.10;99.90;;;;;;4973352;28;20070;-72
2022/09/30 03:35:13;;;;;;;7.68;4.88;;;9.10;99.90;;;;;;4969581;28;20027;-72
2022/09/30 03:38:12;;;;;;;8.25;5.10;;;9.10;99.90;;;;;;4956881;28;20029;-72
2022/09/30 03:41:28;;;;;;;7.28;4.82;;;9.10;99.90;;;;;;4931705;29;20389;-72
2022/09/30 03:44:11;;;;;;;7.80;5.10;;;9.10;99.90;;;;;;4937214;28;20125;-72
2022/09/30 03:46:42;;;;;;;8.77;5.20;;;9.10;99.90;;;;;;4964031;28;20390;-71
2022/09/30 03:49:17;;;;;;;7.72;5.43;;;9.10;99.90;;;;;;4973001;28;20023;-71
2022/09/30 03:51:53;;;;;;;9.05;5.63;;;9.10;99.90;;;;;;4966567;28;20018;-72
2022/09/30 03:54:22;;;;;;;8.35;5.40;;;9.10;99.90;;;;;;4970531;28;20088;-71
2022/09/30 03:56:53;;;;;;;7.50;5.63;;;9.10;99.90;;;;;;4972727;28;20038;-71
2022/09/30 03:59:23;;;;;;;6.93;4.85;;;9.10;99.90;;;;;;4969751;28;20050;-72
2022/09/30 04:01:52;;;;;;;9.82;5.35;;;9.00;99.90;;;;;;4981414;28;20027;-72
2022/09/30 04:04:30;;;;;;;8.43;5.05;;;9.00;99.90;;;;;;4968917;28;20045;-71
2022/09/30 04:07:01;;;;;;;7.10;4.15;;;9.00;99.90;;;;;;4970035;28;20062;-72
2022/09/30 04:09:27;;;;;;;6.32;4.25;;;8.90;99.90;;;;;;4982447;28;20035;-72
2022/09/30 04:11:53;;;;;;;6.68;4.85;;;8.90;99.90;;;;;;4959181;28;20075;-71
2022/09/30 04:14:18;;;;;;;6.22;4.43;;;8.90;99.90;;;;;;4953860;28;20030;-71
2022/09/30 04:16:44;;;;;;;5.65;4.45;;;8.90;99.90;;;;;;4961746;28;20034;-71
2022/09/30 04:19:09;;;;;;;6.28;4.60;;;8.80;99.90;;;;;;4979340;28;20031;-71
2022/09/30 04:21:38;;;;;;;6.47;4.45;;;8.80;99.90;;;;;;4970888;28;20121;-71
2022/09/30 04:24:04;;;;;;;7.88;4.13;;;8.80;99.90;;;;;;4966167;28;20388;-71
2022/09/30 04:26:35;;;;;;;6.38;4.20;;;8.70;99.90;;;;;;4972609;28;20049;-71
2022/09/30 04:29:01;;;;;;;6.55;3.78;;;8.70;99.90;;;;;;4972533;28;20027;-71
2022/09/30 04:31:27;;;;;;;5.47;4.00;;;8.70;99.90;;;;;;4967904;28;20046;-71
2022/09/30 04:33:52;;;;;;;6.30;3.97;;;8.70;99.90;;;;;;4967719;28;20023;-72
2022/09/30 04:36:21;;;;;;;6.97;3.83;;;8.70;99.90;;;;;;4970255;28;20033;-66
2022/09/30 04:38:47;;;;;;;5.75;4.00;;;8.60;99.90;;;;;;4967425;28;20022;-66
2022/09/30 04:41:15;;;;;;;6.68;3.92;;;8.60;99.90;;;;;;4962325;28;20498;-68
2022/09/30 04:43:45;;;;;;;5.40;3.40;;;8.60;99.90;;;;;;4966399;28;20058;-67
2022/09/30 04:46:19;;;;;;;6.07;3.35;;;8.60;99.90;;;;;;4962633;28;20162;-67
2022/09/30 04:48:46;;;;;;;6.65;3.70;;;8.60;99.90;;;;;;4966274;28;20502;-68
2022/09/30 04:51:20;;;;;;;6.28;3.10;;;8.60;99.90;;;;;;4963197;28;20126;-67
2022/09/30 04:53:46;;;;;;;;;;;8.60;99.90;;;;;;4970992;28;20028;-72
2022/09/30 04:56:18;;;;;;;8.27;3.20;;;8.50;99.90;;;;;;4965355;28;20060;-72
2022/09/30 04:58:44;;;;;;;5.35;2.78;;;8.50;99.90;;;;;;4968596;28;20030;-72
2022/09/30 05:01:17;;;;;;;5.82;3.22;;;8.50;99.90;;;;;;4973902;28;20170;-72
2022/09/30 05:03:55;;;;;;;6.25;3.50;;;8.50;99.90;;;;;;4971673;28;20501;-72
2022/09/30 05:06:21;;;;;;;5.95;3.90;;;8.50;99.90;;;;;;4976522;28;20135;-72
2022/09/30 05:08:47;;;;;;;5.55;3.80;;;8.50;99.90;;;;;;4966405;28;20106;-72
2022/09/30 05:11:16;;;;;;;7.95;4.10;;;8.50;99.90;;;;;;4965957;28;20062;-72
2022/09/30 05:13:46;;;;;;;5.85;3.55;;;8.50;99.90;;;;;;4973536;28;20053;-72
2022/09/30 05:16:12;;;;;;;4.93;3.28;;;8.50;99.90;;;;;;4965745;28;20118;-72
2022/09/30 05:18:41;;;;;;;4.95;2.95;;;8.50;99.90;;;;;;4967773;28;20038;-73
2022/09/30 05:21:14;;;;;;;6.75;3.40;;;8.40;99.90;;;;;;4972188;28;20070;-72
2022/09/30 05:23:43;;;;;;;5.90;3.88;;;8.40;99.90;;;;;;4970003;28;20037;-72
2022/09/30 05:26:21;;;;;;;5.80;3.28;;;8.40;99.90;;;;;;4983047;28;20125;-72
2022/09/30 05:28:47;;;;;;;6.07;3.55;;;8.30;99.90;;;;;;4985276;28;20053;-72
2022/09/30 05:31:28;;;;;;;8.05;3.63;;;8.30;99.90;;;;;;4974436;28;20026;-73
2022/09/30 05:33:54;;;;;;;9.55;3.60;;;8.30;99.90;;;;;;4974884;28;20420;-72
2022/09/30 05:36:23;;;;;;;5.85;3.30;;;8.30;99.90;;;;;;4967291;28;20023;-72
2022/09/30 05:38:52;;;;;;;5.20;2.97;;;8.30;99.90;;;;;;4974245;28;20095;-72
2022/09/30 05:41:21;;;;;;;6.07;3.28;;;8.30;99.90;;;;;;4972147;28;20058;-72
2022/09/30 05:43:53;;;;;;;5.38;2.33;;;8.30;99.90;;;;;;4971216;28;20037;-72
2022/09/30 05:46:19;;;;;;;7.88;3.05;;;8.20;99.90;;;;;;4971319;28;20027;-71
2022/09/30 05:48:45;;;;;;;7.07;3.97;;;8.20;99.90;;;;;;4970872;28;20037;-72
2022/09/30 05:51:11;;;;;;;8.02;3.72;;;8.20;99.90;;;;;;4968756;28;20031;-72
2022/09/30 05:53:43;;;;;;;5.40;2.60;;;8.20;99.90;;;;;;4966559;28;20029;-71
2022/09/30 05:56:10;;;;;;;7.25;3.13;;;8.20;99.90;;;;;;4965481;28;20031;-73
2022/09/30 05:58:40;;;;;;;6.07;2.85;;;8.30;99.90;;;;;;4969369;28;20027;-73
2022/09/30 06:01:09;;;;;;;7.85;3.15;;;8.30;99.90;;;;;;4969470;28;20116;-72
2022/09/30 06:03:35;;;;;;;7.22;3.70;;;8.30;99.90;;;;;;4970497;28;20058;-73
2022/09/30 06:06:01;;;;;;;6.30;3.22;;;8.30;99.90;;;;;;4967368;28;20027;-72
2022/09/30 06:08:27;;;;;;;4.32;3.10;;;8.30;99.90;;;;;;4969223;28;20514;-72
2022/09/30 06:10:52;;;;;;;4.20;2.95;;;8.30;99.90;;;;;;4969389;28;20035;-73
2022/09/30 06:13:20;;;;;;;6.05;2.72;;;8.30;99.90;;;;;;4970032;28;20045;-72
2022/09/30 06:15:55;;;;;;;6.05;2.55;;;8.30;99.90;;;;;;4968419;28;20027;-72
2022/09/30 06:18:28;;;;;;;3.95;2.45;;;8.30;99.90;;;;;;4970216;28;20487;-72
2022/09/30 06:21:02;;;;;;;5.60;2.55;;;8.30;99.90;;;;;;4968934;28;20043;-73
2022/09/30 06:23:43;;;;;;;4.95;2.40;;;8.30;99.90;;;;;;4971667;28;20089;-72
2022/09/30 06:26:21;;;;;;;5.88;2.58;;;8.30;99.90;;;;;;4967411;28;20054;-72
2022/09/30 06:28:46;;;;;;;6.38;2.85;;;8.30;99.90;;;;;;4967717;28;20431;-72
2022/09/30 06:31:12;;;;;;;5.25;3.03;;;8.30;99.90;;;;;;4982084;28;20030;-71
2022/09/30 06:33:38;;;;;;;3.92;2.70;;;8.30;99.90;;;;;;4972535;28;20035;-73
2022/09/30 06:36:05;;;;;;;6.03;2.80;;;8.40;99.90;;;;;;4967699;28;20023;-72
2022/09/30 06:38:35;;;;;;;6.35;2.80;;;8.50;99.90;;;;;;4967317;28;20031;-73
2022/09/30 06:41:05;;;;;;;3.70;2.50;;;8.50;99.90;;;;;;4970061;28;20018;-73
2022/09/30 06:43:33;;;;;;;5.82;3.05;;;8.60;99.90;;;;;;4969827;28;20027;-73
2022/09/30 06:46:11;;;;;;;5.72;2.72;;;8.60;99.90;;;;;;4959582;28;20030;-72
2022/09/30 06:48:39;;;;;;;7.70;3.30;;;8.70;99.90;;;;;;4966686;28;20041;-72
2022/09/30 06:51:09;;;;;;;5.53;3.08;;;8.70;99.90;;;;;;4962078;28;20023;-72
2022/09/30 06:53:44;;;;;;;4.90;3.15;;;8.80;99.90;;;;;;4968284;28;20117;-72
2022/09/30 06:56:10;;;;;;;4.25;2.63;;;8.90;99.90;;;;;;5034237;22;20107;-76
2022/09/30 06:58:39;;;;;;;4.50;3.22;;;8.90;99.90;;;;;;5022737;28;20465;-76
2022/09/30 07:01:08;;;;;;;7.10;3.42;;;9.00;99.90;;;;;;5004917;28;20118;-76
2022/09/30 07:03:43;;;;;;;6.28;3.60;;;9.10;99.90;;;;;;5023681;28;20441;-76
2022/09/30 07:06:09;;;;;;;7.25;3.65;;;9.20;99.90;;;;;;5010394;28;20305;-76
2022/09/30 07:08:43;;;;;;;7.18;3.10;;;9.30;99.90;;;;;;4990852;28;20033;-76
2022/09/30 07:11:13;;;;;;;4.00;2.25;;;9.40;99.90;;;;;;4987798;28;20590;-77
2022/09/30 07:13:42;;;;;;;4.63;2.38;;;9.40;99.90;;;;;;4986502;28;20101;-77
2022/09/30 07:16:10;;;;;;;4.90;2.70;;;9.50;99.90;;;;;;4988578;28;20055;-76
2022/09/30 07:18:46;;;;;;;4.63;2.72;;;9.50;99.90;;;;;;5004124;28;20017;-77
2022/09/30 07:21:15;;;;;;;4.95;2.70;;;9.50;99.90;;;;;;4987395;28;20714;-77
2022/09/30 07:23:47;;;;;;;3.80;2.53;;;9.50;99.90;;;;;;4989084;28;20018;-77
2022/09/30 07:26:22;;;;;;;5.57;3.17;;;9.60;99.90;;;;;;4988133;28;20057;-76
2022/09/30 07:28:49;;;;;;;4.88;3.25;;;9.70;99.90;;;;;;4983768;28;20423;-77
2022/09/30 07:31:21;;;;;;;11.13;4.60;;;9.70;99.90;;;;;;4985498;28;20382;-75
2022/09/30 07:33:50;;;;;;;7.75;3.75;;;9.70;99.90;;;;;;4987722;28;20033;-76
2022/09/30 07:36:17;;;;;;;6.28;4.28;;;9.80;99.90;;;;;;5001150;28;20061;-76
2022/09/30 07:38:50;;;;;;;5.63;3.58;;;9.80;99.90;;;;;;5000098;28;20035;-77
2022/09/30 07:41:27;;;;;;;7.93;3.92;;;9.90;99.90;;;;;;4990990;28;20513;-76
2022/09/30 07:43:59;;;;;;;7.85;4.97;;;9.90;99.90;;;;;;4990655;28;20093;-77
2022/09/30 07:46:28;;;;;;;7.03;4.57;;;10.00;99.90;;;;;;4987639;28;20109;-76
2022/09/30 07:49:04;;;;;;;8.07;5.03;;;10.00;99.90;;;;;;4989543;28;20026;-77
2022/09/30 07:51:35;;;;;;;7.65;4.68;;;10.10;99.90;;;;;;4988641;28;20023;-77
2022/09/30 07:54:23;;;;;;;7.82;5.10;;;10.10;99.90;;;;;;5000700;28;20042;-76
2022/09/30 07:56:50;;;;;;;9.57;5.38;;;10.10;99.90;;;;;;4986564;28;20022;-77
2022/09/30 07:59:17;;;;;;;10.02;5.55;;;10.20;99.90;;;;;;4990566;28;20140;-76
2022/09/30 08:01:52;;;;;;;12.45;6.18;;;10.20;99.90;;;;;;4983183;28;20026;-77
2022/09/30 08:04:19;;;;;;;10.70;6.32;;;10.30;99.90;;;;;;4999129;28;20061;-76
2022/09/30 08:06:51;;;;;;;12.52;6.00;;;10.30;99.90;;;;;;4985661;28;20431;-76
2022/09/30 08:09:19;;;;;;;12.02;5.88;;;10.40;99.90;;;;;;4988107;28;20026;-76
2022/09/30 08:11:51;;;;;;;9.45;4.93;;;10.50;99.90;;;;;;5003753;28;20034;-76
2022/09/30 08:14:23;;;;;;;7.70;4.75;;;10.50;99.90;;;;;;4989586;28;20563;-77
2022/09/30 08:16:52;;;;;;;8.68;5.32;;;10.50;99.90;;;;;;4989203;28;20046;-77
2022/09/30 08:19:27;;;;;;;9.27;4.45;;;10.40;99.90;;;;;;5004401;28;20037;-77
2022/09/30 08:21:53;;;;;;;6.20;3.92;;;10.50;99.90;;;;;;4992407;28;20190;-78
2022/09/30 08:24:24;;;;;;;4.85;3.90;;;10.50;99.90;;;;;;4993058;28;20065;-78
2022/09/30 08:26:51;;;;;;;9.73;4.60;;;10.40;99.90;;;;;;5002509;28;20502;-78
2022/09/30 08:29:16;;;;;;;9.07;4.18;;;10.40;99.90;;;;;;4988365;28;20049;-77
2022/09/30 08:31:45;;;;;;;8.73;4.32;;;10.40;99.90;;;;;;5006406;28;20137;-77
2022/09/30 08:34:14;;;;;;;7.97;4.43;;;10.50;99.90;;;;;;4990722;28;20031;-77
2022/09/30 08:36:52;;;;;;;7.18;4.28;;;10.50;99.90;;;;;;5006826;28;20562;-76
2022/09/30 08:39:17;;;;;;;8.73;4.93;;;10.40;99.90;;;;;;4994655;28;20026;-77
2022/09/30 08:42:12;;;;;;;10.90;5.38;;;10.50;99.90;;;;;;4987607;28;20391;-76
2022/09/30 08:44:44;;;;;;;8.27;4.63;;;10.50;99.90;;;;;;4973345;28;20089;-77
2022/09/30 08:47:35;;;;;;;9.55;4.90;;;10.60;99.90;;;;;;4999922;28;20099;-76
2022/09/30 08:50:16;;;;;;;9.85;5.60;;;10.70;99.90;;;;;;4994489;28;20382;-77
2022/09/30 08:52:49;;;;;;;9.68;5.05;;;10.70;99.90;;;;;;4994226;28;20035;-78
2022/09/30 08:55:41;;;;;;;10.23;5.88;;;10.70;99.90;;;;;;4990973;28;20368;-77
2022/09/30 08:58:21;;;;;;;8.57;4.88;;;10.70;99.90;;;;;;5008331;28;20026;-77
2022/09/30 09:00:56;;;;;;;9.52;5.32;;;10.80;99.90;;;;;;4988690;28;20059;-77
2022/09/30 09:03:27;;;;;;;12.05;5.57;;;10.80;99.90;;;;;;4993115;28;20018;-78
2022/09/30 09:05:56;;;;;;;7.97;5.10;;;10.90;99.90;;;;;;5005000;28;20438;-78
2022/09/30 09:08:59;;;;;;;9.10;6.00;;;11.00;99.90;;;;;;5004718;28;20057;-77
2022/09/30 09:11:54;;;;;;;9.77;5.63;;;11.10;99.90;;;;;;4993099;28;20068;-77
2022/09/30 09:14:26;;;;;;;9.50;6.28;;;11.20;99.90;;;;;;4991615;28;20046;-76
2022/09/30 09:17:14;;;;;;;11.07;5.93;;;11.30;99.90;;;;;;4988165;28;20018;-77
2022/09/30 09:19:47;;;;;;;11.70;6.20;;;11.40;99.90;;;;;;4984744;28;20031;-76
2022/09/30 09:22:14;;;;;;;10.95;6.53;;;11.40;99.90;;;;;;4992739;28;20451;-77
2022/09/30 09:24:49;;;;;;;10.70;6.85;;;11.50;99.90;;;;;;4991481;28;20439;-77
2022/09/30 09:27:27;;;;;;;12.38;6.53;;;11.60;99.90;;;;;;4992446;28;20030;-77
2022/09/30 09:30:06;;;;;;;11.23;7.07;;;11.70;99.90;;;;;;4992607;28;20056;-77
2022/09/30 09:32:34;;;;;;;14.65;6.95;;;11.80;99.90;;;;;;4991621;28;20034;-77
2022/09/30 09:35:22;;;;;;;17.42;6.65;;;11.80;99.90;;;;;;4988599;28;20095;-77
2022/09/30 09:38:28;;;;;;;11.18;6.90;;;11.90;99.90;;;;;;5005634;28;20038;-78
2022/09/30 09:41:18;;;;;;;10.75;6.75;;;11.90;99.90;;;;;;4993472;28;20030;-77
2022/09/30 09:43:48;;;;;;;12.18;6.85;;;12.00;99.90;;;;;;4989919;28;20022;-77
2022/09/30 09:46:44;;;;;;;12.82;5.90;;;12.10;99.90;;;;;;4992140;28;20022;-76
2022/09/30 09:49:12;;;;;;;15.43;6.95;;;12.20;99.90;;;;;;5006932;28;20537;-77
2022/09/30 09:52:05;;;;;;;11.90;6.90;;;12.20;99.90;;;;;;4992176;28;20096;-76
2022/09/30 09:54:36;;;;;;;15.77;6.65;;;12.30;99.90;;;;;;4987359;28;20031;-76
2022/09/30 09:57:14;;;;;;;10.10;6.10;;;12.40;99.90;;;;;;4991690;28;20033;-76
2022/09/30 10:03:10;;;;;;;8.23;5.90;;;12.60;99.90;;;;;;4991578;28;20118;-76
2022/09/30 10:05:39;;;;;;;10.27;6.18;;;12.70;99.90;;;;;;4992724;28;20038;-77
2022/09/30 10:08:16;;;;;;;8.82;5.53;;;12.70;99.90;;;;;;5009492;28;20080;-77
2022/09/30 10:11:03;;;;;;;7.65;5.15;;;12.80;99.90;;;;;;4991977;28;20038;-76
2022/09/30 10:13:43;;;;;;;8.30;4.85;;;12.80;99.90;;;;;;4988025;28;20046;-76
2022/09/30 10:16:51;;;;;;;10.57;4.95;;;12.90;99.90;;;;;;4992149;28;20070;-77
2022/09/30 10:19:24;;;;;;;12.50;5.78;;;12.90;99.90;;;;;;4986992;28;20047;-76
2022/09/30 10:22:13;;;;;;;9.68;5.22;;;12.90;99.90;;;;;;5001752;28;20030;-77
2022/09/30 10:24:40;;;;;;;8.88;5.38;;;13.00;99.90;;;;;;5003460;28;20483;-76
2022/09/30 10:27:28;;;;;;;8.68;4.93;;;13.00;99.90;;;;;;4990991;28;20480;-77
2022/09/30 10:29:57;;;;;;;6.93;4.15;;;13.00;99.90;;;;;;4986235;28;20105;-76
2022/09/30 10:32:23;;;;;;;6.28;4.00;;;13.00;99.90;;;;;;5003256;28;20509;-77
2022/09/30 10:35:19;;;;;;;7.65;4.30;;;13.10;99.90;;;;;;5003980;28;20022;-76
2022/09/30 10:37:57;;;;;;;8.20;4.43;;;13.20;99.90;;;;;;4990194;28;20034;-76
2022/09/30 10:40:27;;;;;;;7.95;4.20;;;13.20;99.90;;;;;;4989962;28;20065;-77
2022/09/30 10:42:54;;;;;;;6.10;3.65;;;13.20;99.90;;;;;;5004855;28;20023;-77
2022/09/30 10:45:24;;;;;;;7.75;4.50;;;13.20;99.90;;;;;;4990616;28;20037;-76
2022/09/30 10:47:54;;;;;;;6.30;3.83;;;13.30;99.90;;;;;;4987918;28;20046;-77
2022/09/30 10:50:26;;;;;;;9.00;4.07;;;13.30;99.90;;;;;;4989656;28;20133;-77
2022/09/30 10:53:16;;;;;;;8.13;4.00;;;13.30;99.90;;;;;;5002634;28;20023;-76
2022/09/30 10:55:44;;;;;;;6.10;3.95;;;13.30;99.90;;;;;;4991215;28;20426;-77
2022/09/30 10:58:44;;;;;;;7.75;4.00;;;13.30;99.90;;;;;;5005719;28;20034;-76
2022/09/30 11:01:26;;;;;;;4.90;3.90;;;13.30;99.90;;;;;;4986861;28;20364;-76
2022/09/30 11:04:16;;;;;;;7.75;4.22;;;13.30;99.90;;;;;;4991530;28;20026;-77
2022/09/30 11:06:48;;;;;;;9.18;3.90;;;13.30;99.90;;;;;;4990030;28;20045;-77
2022/09/30 11:09:34;;;;;;;4.93;3.13;;;13.40;99.90;;;;;;4987575;28;20471;-77
2022/09/30 11:12:19;;;;;;;5.72;2.65;;;13.30;99.90;;;;;;4991278;28;20122;-76
2022/09/30 11:15:03;;;;;;;7.15;3.42;;;13.30;99.90;;;;;;5002935;28;20186;-76
2022/09/30 11:17:38;;;;;;;8.18;3.85;;;13.30;99.90;;;;;;4988929;28;20414;-77
2022/09/30 11:20:21;;;;;;;9.65;4.28;;;13.30;99.90;;;;;;4989285;28;20383;-76
2022/09/30 11:23:05;;;;;;;5.25;3.03;;;13.30;99.90;;;;;;4985318;28;20034;-76
2022/09/30 11:26:18;;;;;;;4.57;3.15;;;13.30;99.90;;;;;;4990805;28;20037;-76
2022/09/30 11:28:59;;;;;;;7.68;3.13;;;13.30;99.90;;;;;;4931157;28;20034;-77
2022/09/30 11:31:57;;;;;;;7.47;3.65;;;13.40;99.90;;;;;;4986699;28;20035;-76
2022/09/30 11:34:56;;;;;;;8.10;3.35;;;13.40;99.90;;;;;;4956070;28;20034;-76
2022/09/30 11:38:00;;;;;;;6.38;2.90;;;13.40;99.90;;;;;;4986545;28;20026;-76
2022/09/30 11:40:41;;;;;;;4.57;2.10;;;13.50;99.90;;;;;;4967162;28;20081;-76
2022/09/30 11:43:49;;;;;;;4.63;2.28;;;13.50;99.90;;;;;;4983249;28;20049;-76
2022/09/30 11:46:42;;;;;;;3.33;2.10;;;13.60;99.90;;;;;;4988004;28;20030;-76
2022/09/30 11:49:31;;;;;;;6.07;2.67;;;13.70;99.90;;;;;;4988364;28;20117;-77
2022/09/30 11:52:21;;;;;;;6.82;2.60;;;13.70;99.90;;;;;;4997521;28;20734;-77
2022/09/30 11:55:05;;;;;;;6.53;3.55;;;13.80;99.90;;;;;;4988867;28;20048;-77
2022/09/30 11:57:36;;;;;;;;;;;13.80;99.90;;;;;;5001172;28;20473;-77
2022/09/30 12:00:16;;;;;;;6.22;2.72;;;13.80;99.90;;;;;;5003145;28;19914;-79
2022/09/30 12:02:50;;;;;;;4.00;2.28;;;13.90;99.90;;;;;;4989356;28;20022;-76
2022/09/30 12:05:39;;;;;;;4.20;2.20;;;13.90;99.90;;;;;;4993043;28;20426;-77
2022/09/30 12:08:20;;;;;;;4.35;2.83;;;13.90;99.90;;;;;;4993735;28;20019;-77
2022/09/30 12:11:00;;;;;;;6.60;2.63;;;14.00;99.90;;;;;;4993435;28;20022;-77
2022/09/30 12:13:30;;;;;;;7.63;3.22;;;14.00;99.90;;;;;;4994638;28;20360;-76
2022/09/30 12:16:03;;;;;;;4.63;2.30;;;14.10;99.90;;;;;;4991944;28;20092;-76
2022/09/30 12:18:38;;;;;;;4.00;2.55;;;14.10;99.90;;;;;;4990660;28;20042;-77
2022/09/30 12:21:31;;;;;;;4.35;2.20;;;14.20;99.90;;;;;;4993004;28;20022;-77
2022/09/30 12:24:22;;;;;;;3.87;2.00;;;14.20;99.90;;;;;;4995585;28;20030;-78
2022/09/30 12:26:51;;;;;;;6.50;2.00;;;14.30;99.90;;;;;;5003036;28;20058;-77
2022/09/30 12:32:46;;;;;;;3.95;2.00;;;14.40;99.90;;;;;;4993473;28;20069;-77
2022/09/30 12:35:31;;;;;;;5.18;1.67;;;14.50;99.90;;;;;;4992347;28;20022;-77
2022/09/30 12:38:38;;;;;;;2.95;1.80;;;14.50;99.90;;;;;;4989728;28;20146;-78
2022/09/30 12:41:25;;;;;;;3.00;1.67;;;14.60;99.90;;;;;;4988047;28;20050;-77
2022/09/30 12:44:28;;;;;;;2.22;1.70;;;14.60;99.90;;;;;;4994031;28;20033;-77
2022/09/30 12:47:00;;;;;;;4.88;2.00;;;14.60;99.90;;;;;;4992974;28;20034;-77
2022/09/30 12:49:31;;;;;;;4.57;1.90;;;14.70;99.90;;;;;;4990709;28;21369;-77
2022/09/30 12:52:05;;;;;;;4.63;1.98;;;14.70;99.90;;;;;;4991461;28;20029;-76
2022/09/30 12:54:39;;;;;;;5.70;2.17;;;14.70;99.90;;;;;;4992906;28;20028;-77
2022/09/30 12:57:09;;;;;;;3.50;1.80;;;14.70;99.90;;;;;;5041468;22;20047;-75
2022/09/30 12:59:49;;;;;;;3.42;1.73;;;14.70;99.90;;;;;;5006834;28;20022;-76
2022/09/30 13:02:34;;;;;;;4.22;1.83;;;14.70;99.90;;;;;;5025301;28;20410;-77
2022/09/30 13:05:30;;;;;;;4.72;1.90;;;14.70;99.90;;;;;;5006855;28;20026;-77
2022/09/30 13:08:15;;;;;;;3.97;1.90;;;14.80;99.90;;;;;;5022842;28;20026;-76
2022/09/30 13:10:47;;;;;;;2.78;1.52;;;14.80;99.90;;;;;;5007567;28;20379;-76
2022/09/30 13:13:23;;;;;;;3.28;1.60;;;14.90;99.90;;;;;;5012151;28;20029;-76
2022/09/30 13:15:50;;;;;;;5.93;1.65;;;15.00;99.90;;;;;;5024065;28;20536;-76
2022/09/30 13:18:34;;;;;;;2.10;1.48;;;15.00;99.90;;;;;;5007391;28;20026;-76
2022/09/30 13:21:03;;;;;;;;;;;15.00;99.90;;;;;;5011445;28;20032;-75
2022/09/30 13:23:59;;;;;;;4.65;1.88;;;15.00;99.90;;;;;;5010735;28;19909;-75
2022/09/30 13:26:32;;;;;;;2.80;1.60;;;15.00;99.90;;;;;;5026341;28;20050;-75
2022/09/30 13:29:00;;;;;;;2.97;1.60;;;15.00;99.90;;;;;;5009586;28;20491;-76
2022/09/30 13:31:31;;;;;;;3.45;1.42;;;15.00;99.90;;;;;;5004356;28;20018;-75
2022/09/30 13:34:11;;;;;;;3.95;1.85;;;15.00;99.90;;;;;;5026142;28;20030;-75
2022/09/30 13:36:55;;;;;;;2.65;1.50;;;14.90;99.90;;;;;;5009318;28;20021;-76
2022/09/30 13:39:24;;;;;;;5.32;1.40;;;14.80;99.90;;;;;;5010316;28;20494;-75
2022/09/30 13:42:18;;;;;;;4.82;1.60;;;14.80;99.90;;;;;;5030373;28;20030;-75
2022/09/30 13:45:12;;;;;;;6.82;2.42;;;14.80;99.90;;;;;;5008536;28;20084;-75
2022/09/30 13:47:57;;;;;;;2.22;1.70;;;14.80;99.90;;;;;;5000236;28;20085;-75
2022/09/30 13:50:30;;;;;;;2.63;1.65;;;14.80;99.90;;;;;;5009413;28;20398;-75